createdAt,value
2023-02-09T00:01:30.896Z,42.76
2023-02-09T00:04:00.027Z,42.65
2023-02-09T00:06:30.001Z,42.70
2023-02-09T00:08:58.550Z,43.18
2023-02-09T00:11:49.103Z,42.66
2023-02-09T00:14:21.608Z,42.83
2023-02-09T00:16:50.763Z,42.41
2023-02-09T00:19:19.476Z,42.60
2023-02-09T00:21:48.998Z,43.06
2023-02-09T00:24:16.691Z,42.96
2023-02-09T00:26:44.917Z,42.48
2023-02-09T00:29:13.246Z,42.26
2023-02-09T00:31:40.836Z,42.19
2023-02-09T00:34:08.420Z,42.66
2023-02-09T00:36:35.757Z,42.08
2023-02-09T00:39:03.340Z,42.21
2023-02-09T00:41:49.378Z,42.65
2023-02-09T00:44:16.886Z,42.37
2023-02-09T00:46:44.293Z,42.36
2023-02-09T00:49:11.749Z,42.43
2023-02-09T00:51:39.125Z,42.61
2023-02-09T00:54:06.543Z,42.40
2023-02-09T00:56:33.923Z,42.25
2023-02-09T00:59:01.369Z,42.49
2023-02-09T01:01:28.808Z,42.22
2023-02-09T01:03:56.542Z,42.13
2023-02-09T01:06:23.956Z,42.19
2023-02-09T01:08:51.345Z,41.90
2023-02-09T01:11:19.374Z,42.11
2023-02-09T01:13:47.542Z,42.20
2023-02-09T01:16:18.333Z,42.34
2023-02-09T01:18:45.764Z,42.51
2023-02-09T01:21:20.029Z,41.93
2023-02-09T01:23:48.567Z,41.36
2023-02-09T01:26:18.162Z,41.82
2023-02-09T01:28:50.532Z,41.43
2023-02-09T01:31:27.295Z,41.52
2023-02-09T01:33:57.145Z,41.82
2023-02-09T01:36:28.333Z,41.59
2023-02-09T01:38:57.425Z,41.42
2023-02-09T01:41:25.517Z,41.64
2023-02-09T01:43:54.687Z,41.07
2023-02-09T01:46:24.195Z,41.41
2023-02-09T01:48:56.889Z,41.46
2023-02-09T01:51:25.992Z,41.12
2023-02-09T01:53:53.648Z,41.69
2023-02-09T01:56:28.745Z,41.07
2023-02-09T01:58:56.748Z,41.31
2023-02-09T02:01:25.263Z,41.31
2023-02-09T02:03:54.283Z,41.51
2023-02-09T02:06:22.012Z,41.18
2023-02-09T02:08:58.727Z,41.37
2023-02-09T02:11:29.903Z,41.08
2023-02-09T02:13:57.492Z,41.49
2023-02-09T02:16:55.581Z,41.42
2023-02-09T02:20:01.679Z,41.48
2023-02-09T02:22:40.226Z,41.26
2023-02-09T02:25:28.961Z,41.55
2023-02-09T02:28:22.549Z,41.19
2023-02-09T02:31:11.689Z,41.27
2023-02-09T02:33:45.190Z,41.37
2023-02-09T02:36:31.767Z,41.40
2023-02-09T02:39:31.745Z,41.53
2023-02-09T02:42:27.315Z,41.54
2023-02-09T02:45:13.764Z,41.71
2023-02-09T02:47:50.812Z,41.42
2023-02-09T02:50:22.841Z,41.61
2023-02-09T02:52:56.520Z,40.83
2023-02-09T02:55:28.762Z,41.45
2023-02-09T02:58:00.332Z,41.40
2023-02-09T03:00:32.997Z,41.66
2023-02-09T03:03:05.720Z,41.54
2023-02-09T03:05:33.520Z,41.49
2023-02-09T03:08:00.914Z,41.94
2023-02-09T03:10:37.436Z,41.48
2023-02-09T03:13:08.556Z,41.44
2023-02-09T03:15:38.843Z,41.45
2023-02-09T03:18:12.046Z,41.76
2023-02-09T03:20:51.103Z,41.26
2023-02-09T03:23:47.791Z,41.32
2023-02-09T03:26:22.404Z,41.09
2023-02-09T03:28:55.940Z,41.33
2023-02-09T03:31:24.843Z,41.24
2023-02-09T03:33:52.499Z,41.10
2023-02-09T03:36:20.893Z,41.54
2023-02-09T03:38:48.190Z,41.50
2023-02-09T03:41:15.556Z,41.46
2023-02-09T03:44:01.566Z,41.74
2023-02-09T03:46:29.012Z,41.32
2023-02-09T03:48:56.558Z,41.83
2023-02-09T03:51:24.244Z,41.54
2023-02-09T03:53:51.921Z,41.72
2023-02-09T03:56:19.274Z,41.37
2023-02-09T03:58:46.623Z,42.00
2023-02-09T04:01:14.166Z,41.80
2023-02-09T04:03:41.903Z,41.78
2023-02-09T04:06:12.535Z,41.98
2023-02-09T04:08:40.120Z,41.51
2023-02-09T04:11:07.491Z,41.52
2023-02-09T04:13:35.393Z,41.53
2023-02-09T04:16:02.966Z,41.87
2023-02-09T04:18:30.390Z,41.83
2023-02-09T04:20:57.897Z,42.10
2023-02-09T04:23:25.217Z,41.83
2023-02-09T04:25:52.751Z,41.72
2023-02-09T04:28:20.486Z,41.95
2023-02-09T04:30:57.101Z,42.09
2023-02-09T04:33:25.552Z,42.36
2023-02-09T04:35:53.158Z,42.16
2023-02-09T04:38:21.680Z,42.39
2023-02-09T04:40:50.931Z,42.40
2023-02-09T04:43:18.640Z,42.60
2023-02-09T04:45:46.611Z,42.36
2023-02-09T04:48:16.416Z,42.54
2023-02-09T04:50:44.307Z,42.20
2023-02-09T04:53:12.660Z,42.28
2023-02-09T04:55:42.251Z,42.20
2023-02-09T04:58:30.092Z,42.23
2023-02-09T05:00:58.045Z,42.47
2023-02-09T05:03:26.293Z,42.36
2023-02-09T05:05:58.165Z,42.53
2023-02-09T05:08:26.006Z,42.41
2023-02-09T05:10:54.404Z,42.55
2023-02-09T05:13:23.948Z,42.30
2023-02-09T05:15:51.497Z,43.39
2023-02-09T05:18:19.002Z,43.64
2023-02-09T05:20:47.812Z,43.33
2023-02-09T05:23:16.276Z,43.22
2023-02-09T05:25:45.783Z,43.45
2023-02-09T05:28:13.176Z,43.48
2023-02-09T05:30:40.587Z,43.68
2023-02-09T05:33:07.950Z,44.36
2023-02-09T05:35:35.792Z,44.98
2023-02-09T05:38:03.186Z,44.62
2023-02-09T05:40:30.713Z,44.20
2023-02-09T05:42:59.672Z,44.56
2023-02-09T05:45:27.133Z,44.53
2023-02-09T05:47:54.651Z,45.42
2023-02-09T05:50:22.165Z,44.77
2023-02-09T05:52:49.556Z,44.93
2023-02-09T05:55:17.086Z,44.60
2023-02-09T05:57:44.488Z,44.96
2023-02-09T06:00:12.653Z,45.03
2023-02-09T06:02:40.155Z,44.75
2023-02-09T06:05:08.224Z,45.39
2023-02-09T06:07:35.866Z,45.52
2023-02-09T06:10:04.445Z,45.56
2023-02-09T06:12:31.787Z,45.68
2023-02-09T06:14:59.116Z,45.66
2023-02-09T06:17:26.561Z,45.56
2023-02-09T06:19:53.894Z,46.41
2023-02-09T06:22:21.245Z,45.98
2023-02-09T06:24:48.602Z,45.16
2023-02-09T06:27:15.999Z,45.52
2023-02-09T06:29:43.419Z,45.63
2023-02-09T06:32:10.934Z,45.55
2023-02-09T06:34:38.315Z,45.36
2023-02-09T06:37:05.897Z,45.77
2023-02-09T06:39:33.266Z,45.75
2023-02-09T06:42:00.719Z,46.66
2023-02-09T06:44:28.220Z,47.68
2023-02-09T06:46:55.819Z,47.46
2023-02-09T06:49:25.279Z,47.41
2023-02-09T06:51:52.965Z,47.28
2023-02-09T06:54:20.725Z,48.16
2023-02-09T06:56:48.181Z,47.96
2023-02-09T06:59:15.588Z,47.50
2023-02-09T07:01:42.985Z,47.16
2023-02-09T07:04:10.401Z,47.42
2023-02-09T07:06:37.722Z,47.33
2023-02-09T07:09:05.208Z,47.63
2023-02-09T07:11:32.652Z,47.42
2023-02-09T07:14:00.111Z,47.40
2023-02-09T07:16:27.681Z,47.22
2023-02-09T07:18:55.227Z,47.60
2023-02-09T07:21:22.693Z,47.39
2023-02-09T07:23:50.079Z,47.38
2023-02-09T07:26:18.797Z,47.60
2023-02-09T07:28:46.180Z,47.62
2023-02-09T07:31:16.062Z,47.31
2023-02-09T07:33:43.683Z,47.53
2023-02-09T07:36:14.275Z,47.61
2023-02-09T07:38:41.869Z,47.14
2023-02-09T07:41:15.360Z,47.59
2023-02-09T07:43:43.226Z,47.31
2023-02-09T07:46:13.693Z,47.50
2023-02-09T07:48:41.244Z,47.59
2023-02-09T07:51:20.832Z,48.22
2023-02-09T07:53:48.242Z,47.92
2023-02-09T07:56:15.618Z,47.40
2023-02-09T07:58:43.018Z,46.20
2023-02-09T08:01:12.346Z,45.15
2023-02-09T08:03:42.485Z,43.66
2023-02-09T08:06:41.562Z,41.36
2023-02-09T08:09:11.890Z,40.85
2023-02-09T08:12:02.693Z,40.49
2023-02-09T08:14:36.879Z,39.59
2023-02-09T08:17:20.083Z,39.13
2023-02-09T08:19:55.636Z,38.79
2023-02-09T08:22:24.943Z,38.79
2023-02-09T08:24:52.967Z,38.51
2023-02-09T08:27:20.627Z,39.19
2023-02-09T08:29:49.111Z,38.93
2023-02-09T08:32:16.612Z,37.90
2023-02-09T08:34:43.993Z,34.80
2023-02-09T08:37:11.389Z,34.05
2023-02-09T08:39:38.708Z,33.42
2023-02-09T08:42:06.221Z,32.72
2023-02-09T08:44:33.591Z,31.72
2023-02-09T08:47:01.316Z,31.47
2023-02-09T08:49:29.048Z,31.42
2023-02-09T08:51:56.407Z,30.57
2023-02-09T08:54:24.236Z,29.82
2023-02-09T08:56:51.579Z,30.82
2023-02-09T08:59:20.162Z,31.42
2023-02-09T09:01:48.096Z,30.48
2023-02-09T09:04:17.806Z,30.55
2023-02-09T09:06:45.212Z,29.28
2023-02-09T09:09:12.622Z,28.43
2023-02-09T09:11:40.280Z,29.60
2023-02-09T09:14:07.950Z,30.87
2023-02-09T09:16:35.627Z,31.96
2023-02-09T09:19:04.384Z,33.41
2023-02-09T09:21:31.780Z,34.44
2023-02-09T09:23:59.202Z,34.95
2023-02-09T09:26:26.548Z,35.86
2023-02-09T09:28:53.885Z,34.93
2023-02-09T09:31:21.369Z,35.19
2023-02-09T09:33:48.789Z,36.08
2023-02-09T09:36:16.186Z,35.45
2023-02-09T09:38:43.991Z,36.01
2023-02-09T09:41:38.094Z,36.34
2023-02-09T09:44:27.771Z,36.01
2023-02-09T09:47:01.104Z,35.67
2023-02-09T09:49:30.115Z,35.94
2023-02-09T09:52:04.927Z,36.08
2023-02-09T09:54:34.638Z,35.92
2023-02-09T09:57:02.678Z,35.44
2023-02-09T09:59:38.799Z,35.94
2023-02-09T10:02:33.181Z,35.80
2023-02-09T10:05:19.217Z,36.06
2023-02-09T10:07:58.698Z,36.33
2023-02-09T10:10:38.860Z,35.51
2023-02-09T10:13:25.695Z,35.98
2023-02-09T10:15:55.422Z,36.24
2023-02-09T10:18:25.509Z,36.28
2023-02-09T10:20:54.262Z,35.91
2023-02-09T10:26:40.761Z,35.39
2023-02-09T10:29:11.095Z,35.22
2023-02-09T10:31:43.561Z,35.74
2023-02-09T10:34:15.124Z,35.37
2023-02-09T10:36:52.309Z,35.24
2023-02-09T10:39:24.101Z,36.15
2023-02-09T10:41:54.495Z,35.34
2023-02-09T10:44:33.905Z,35.18
2023-02-09T10:47:28.078Z,34.78
2023-02-09T10:50:01.541Z,34.85
2023-02-09T10:52:35.685Z,35.02
2023-02-09T10:55:15.035Z,34.07
2023-02-09T10:57:42.466Z,33.91
2023-02-09T11:00:15.542Z,34.29
2023-02-09T11:02:53.054Z,34.06
2023-02-09T11:05:21.451Z,34.27
2023-02-09T11:08:01.973Z,34.22
2023-02-09T11:10:32.131Z,34.09
2023-02-09T11:13:00.122Z,34.06
2023-02-09T11:15:33.092Z,33.64
2023-02-09T11:18:15.706Z,33.93
2023-02-09T11:20:55.567Z,33.95
2023-02-09T11:23:28.967Z,34.05
2023-02-09T11:26:04.199Z,34.53
2023-02-09T11:29:16.844Z,34.35
2023-02-09T11:32:04.252Z,34.04
2023-02-09T11:34:43.351Z,34.00
2023-02-09T11:37:16.543Z,34.35
2023-02-09T11:40:20.752Z,34.20
2023-02-09T11:42:59.370Z,33.89
2023-02-09T11:45:36.788Z,33.86
2023-02-09T11:48:25.050Z,33.89
2023-02-09T11:51:04.797Z,33.02
2023-02-09T11:53:56.855Z,33.63
2023-02-09T11:56:25.750Z,33.35
2023-02-09T11:59:18.977Z,33.16
2023-02-09T12:02:19.170Z,33.11
2023-02-09T12:04:57.364Z,33.64
2023-02-09T12:07:57.677Z,33.80
2023-02-09T12:11:04.146Z,33.84
2023-02-09T12:13:39.474Z,33.43
2023-02-09T12:16:18.571Z,32.94
2023-02-09T12:18:46.444Z,33.23
2023-02-09T12:21:26.005Z,32.99
2023-02-09T12:26:58.073Z,33.15
2023-02-09T12:29:40.155Z,33.05
2023-02-09T12:32:08.075Z,33.14
2023-02-09T12:34:35.413Z,33.49
2023-02-09T12:37:14.776Z,32.98
2023-02-09T12:40:06.926Z,33.04
2023-02-09T12:43:09.780Z,33.35
2023-02-09T12:45:39.851Z,33.31
2023-02-09T12:48:07.222Z,32.93
2023-02-09T12:50:55.637Z,33.26
2023-02-09T12:53:22.915Z,31.82
2023-02-09T12:56:11.378Z,32.52
2023-02-09T12:58:39.960Z,32.35
2023-02-09T13:01:08.388Z,32.89
2023-02-09T13:03:51.373Z,33.20
2023-02-09T13:06:43.918Z,32.69
2023-02-09T13:09:22.490Z,32.88
2023-02-09T13:11:55.679Z,32.82
2023-02-09T13:14:24.537Z,32.92
2023-02-09T13:17:24.065Z,32.77
2023-02-09T13:20:22.373Z,33.16
2023-02-09T13:23:01.473Z,32.55
2023-02-09T13:25:36.465Z,32.98
2023-02-09T13:28:26.742Z,32.37
2023-02-09T13:30:54.192Z,32.39
2023-02-09T13:33:40.248Z,32.20
2023-02-09T13:36:16.275Z,32.60
2023-02-09T13:38:47.150Z,32.39
2023-02-09T13:41:37.831Z,32.54
2023-02-09T13:44:19.630Z,32.65
2023-02-09T13:46:58.831Z,33.23
2023-02-09T13:49:28.952Z,33.37
2023-02-09T13:52:12.768Z,33.78
2023-02-09T13:54:41.247Z,33.64
2023-02-09T13:57:11.707Z,33.53
2023-02-09T13:59:43.611Z,33.00
2023-02-09T14:02:22.847Z,33.43
2023-02-09T14:04:56.281Z,33.78
2023-02-09T14:07:27.582Z,33.47
2023-02-09T14:10:01.879Z,33.46
2023-02-09T14:12:55.884Z,33.24
2023-02-09T14:15:56.656Z,33.57
2023-02-09T14:18:34.046Z,33.51
2023-02-09T14:21:11.710Z,33.84
2023-02-09T14:23:40.601Z,33.17
2023-02-09T14:26:21.083Z,33.01
2023-02-09T14:29:03.637Z,33.52
2023-02-09T14:31:35.202Z,34.27
2023-02-09T14:34:02.622Z,33.44
2023-02-09T14:36:32.428Z,33.67
2023-02-09T14:39:16.996Z,34.13
2023-02-09T14:42:02.715Z,33.97
2023-02-09T14:44:30.654Z,34.09
2023-02-09T14:47:01.650Z,34.31
2023-02-09T14:49:29.586Z,33.82
2023-02-09T14:52:13.089Z,34.35
2023-02-09T14:54:48.297Z,35.14
2023-02-09T14:57:15.755Z,35.05
2023-02-09T14:59:43.034Z,35.00
2023-02-09T15:02:19.192Z,34.99
2023-02-09T15:04:47.147Z,35.39
2023-02-09T15:07:20.556Z,35.54
2023-02-09T15:09:49.286Z,35.72
2023-02-09T15:12:23.542Z,36.00
2023-02-09T15:14:53.349Z,35.64
2023-02-09T15:17:25.526Z,35.73
2023-02-09T15:19:52.884Z,36.40
2023-02-09T15:22:22.067Z,36.32
2023-02-09T15:24:52.283Z,36.56
2023-02-09T15:27:27.721Z,36.40
2023-02-09T15:29:58.949Z,36.30
2023-02-09T15:32:27.761Z,36.19
2023-02-09T15:34:55.147Z,36.89
2023-02-09T15:37:34.644Z,36.39
2023-02-09T15:40:43.937Z,36.48
2023-02-09T15:43:51.597Z,36.06
2023-02-09T15:46:37.795Z,36.53
2023-02-09T15:49:05.721Z,36.32
2023-02-09T15:51:36.675Z,36.96
2023-02-09T15:54:11.721Z,37.62
2023-02-09T15:56:39.429Z,37.57
2023-02-09T15:59:06.818Z,37.34
2023-02-09T16:01:34.631Z,37.47
2023-02-09T16:04:14.030Z,38.09
2023-02-09T16:06:48.426Z,38.20
2023-02-09T16:09:22.656Z,38.17
2023-02-09T16:11:50.331Z,38.55
2023-02-09T16:14:24.462Z,39.03
2023-02-09T16:16:52.474Z,39.18
2023-02-09T16:19:21.448Z,39.35
2023-02-09T16:21:56.416Z,39.75
2023-02-09T16:25:00.544Z,39.05
2023-02-09T16:27:29.118Z,39.56
2023-02-09T16:29:58.121Z,39.75
2023-02-09T16:32:26.973Z,39.90
2023-02-09T16:35:07.336Z,39.65
2023-02-09T16:37:43.609Z,40.25
2023-02-09T16:40:18.843Z,40.17
2023-02-09T16:42:48.503Z,40.10
2023-02-09T16:45:17.207Z,40.05
2023-02-09T16:47:50.284Z,40.75
2023-02-09T16:50:28.811Z,40.72
2023-02-09T16:52:56.718Z,40.88
2023-02-09T16:55:29.949Z,41.77
2023-02-09T16:58:17.796Z,41.55
2023-02-09T17:00:45.689Z,41.95
2023-02-09T17:03:17.146Z,41.91
2023-02-09T17:05:50.533Z,42.09
2023-02-09T17:08:21.514Z,42.33
2023-02-09T17:10:51.121Z,42.31
2023-02-09T17:13:21.987Z,42.15
2023-02-09T17:15:52.094Z,42.22
2023-02-09T17:18:22.501Z,42.59
2023-02-09T17:20:53.684Z,42.54
2023-02-09T17:23:23.595Z,42.76
2023-02-09T17:25:54.923Z,42.76
2023-02-09T17:28:24.398Z,42.65
2023-02-09T17:30:56.590Z,42.22
2023-02-09T17:33:35.701Z,42.69
2023-02-09T17:36:25.231Z,42.27
2023-02-09T17:38:51.575Z,42.98
2023-02-09T17:41:45.343Z,42.73
2023-02-09T17:44:43.648Z,43.07
2023-02-09T17:47:17.401Z,43.04
2023-02-09T17:49:45.045Z,43.27
2023-02-09T17:52:20.890Z,43.80
2023-02-09T17:54:49.442Z,44.05
2023-02-09T17:57:17.467Z,44.01
2023-02-09T17:59:46.054Z,44.29
2023-02-09T18:02:19.752Z,44.23
2023-02-09T18:04:47.602Z,44.23
2023-02-09T18:07:20.449Z,44.49
2023-02-09T18:09:48.020Z,44.47
2023-02-09T18:12:21.423Z,44.60
2023-02-09T18:14:48.857Z,44.41
2023-02-09T18:17:16.698Z,45.29
2023-02-09T18:19:44.048Z,46.08
2023-02-09T18:22:19.997Z,45.51
2023-02-09T18:24:47.551Z,45.43
2023-02-09T18:27:17.544Z,45.34
2023-02-09T18:29:44.952Z,45.86
2023-02-09T18:32:15.975Z,45.89
2023-02-09T18:34:43.341Z,45.62
2023-02-09T18:37:10.745Z,46.25
2023-02-09T18:39:45.891Z,46.52
2023-02-09T18:42:15.550Z,47.15
2023-02-09T18:44:43.130Z,47.04
2023-02-09T18:47:11.181Z,47.29
2023-02-09T18:49:39.231Z,47.09
2023-02-09T18:52:08.471Z,47.61
2023-02-09T18:54:35.951Z,47.67
2023-02-09T18:57:03.358Z,47.90
2023-02-09T18:59:34.348Z,48.07
2023-02-09T19:02:02.631Z,47.72
2023-02-09T19:04:30.042Z,48.37
2023-02-09T19:06:57.488Z,48.24
2023-02-09T19:09:24.968Z,48.97
2023-02-09T19:11:52.291Z,49.15
2023-02-09T19:14:37.581Z,49.55
2023-02-09T19:17:07.545Z,49.69
2023-02-09T19:19:35.093Z,49.69
2023-02-09T19:22:02.488Z,49.92
2023-02-09T19:24:29.936Z,49.79
2023-02-09T19:26:57.331Z,50.26
2023-02-09T19:29:28.952Z,50.25
2023-02-09T19:31:56.305Z,50.19
2023-02-09T19:34:23.726Z,50.92
2023-02-09T19:36:51.039Z,50.64
2023-02-09T19:39:19.304Z,50.72
2023-02-09T19:41:49.012Z,50.70
2023-02-09T19:44:16.418Z,50.77
2023-02-09T19:46:43.946Z,50.74
2023-02-09T19:49:11.313Z,51.06
2023-02-09T19:51:38.582Z,51.87
2023-02-09T19:54:05.946Z,51.77
2023-02-09T19:56:34.328Z,52.59
2023-02-09T19:59:01.717Z,53.03
2023-02-09T20:01:31.346Z,52.68
2023-02-09T20:03:58.970Z,52.63
2023-02-09T20:06:26.505Z,52.60
2023-02-09T20:08:53.898Z,53.27
2023-02-09T20:11:21.451Z,52.84
2023-02-09T20:13:51.759Z,52.89
2023-02-09T20:16:26.003Z,53.19
2023-02-09T20:18:54.188Z,53.11
2023-02-09T20:21:23.103Z,52.96
2023-02-09T20:23:54.244Z,53.43
2023-02-09T20:26:26.806Z,53.71
2023-02-09T20:28:56.335Z,54.02
2023-02-09T20:31:29.595Z,54.04
2023-02-09T20:33:56.991Z,54.13
2023-02-09T20:36:25.622Z,54.81
2023-02-09T20:38:53.191Z,54.48
2023-02-09T20:41:20.908Z,54.01
2023-02-09T20:44:06.881Z,53.93
2023-02-09T20:46:40.520Z,54.85
2023-02-09T20:49:10.106Z,54.70
2023-02-09T20:51:37.879Z,54.93
2023-02-09T20:54:06.019Z,54.91
2023-02-09T20:56:33.427Z,55.21
2023-02-09T20:59:00.753Z,54.88
2023-02-09T21:01:28.495Z,55.29
2023-02-09T21:03:58.983Z,55.25
2023-02-09T21:06:27.269Z,55.04
2023-02-09T21:08:54.911Z,55.29
2023-02-09T21:11:22.369Z,54.94
2023-02-09T21:13:49.944Z,55.04
2023-02-09T21:16:17.461Z,55.14
2023-02-09T21:18:45.824Z,55.60
2023-02-09T21:21:19.173Z,55.52
2023-02-09T21:23:46.773Z,55.52
2023-02-09T21:26:17.349Z,55.90
2023-02-09T21:28:45.399Z,56.37
2023-02-09T21:31:17.926Z,56.48
2023-02-09T21:33:45.320Z,56.16
2023-02-09T21:36:15.686Z,56.09
2023-02-09T21:38:43.011Z,56.43
2023-02-09T21:41:32.557Z,56.52
2023-02-09T21:44:00.501Z,56.70
2023-02-09T21:46:28.830Z,56.76
2023-02-09T21:48:56.396Z,56.38
2023-02-09T21:51:24.949Z,56.96
2023-02-09T21:53:53.020Z,57.27
2023-02-09T21:56:20.636Z,56.84
2023-02-09T21:58:48.004Z,57.03
2023-02-09T22:01:15.555Z,57.13
2023-02-09T22:03:43.869Z,57.38
2023-02-09T22:06:11.325Z,57.31
2023-02-09T22:08:38.720Z,56.89
2023-02-09T22:11:07.176Z,57.02
2023-02-09T22:13:34.924Z,57.16
2023-02-09T22:16:07.232Z,57.42
2023-02-09T22:18:35.241Z,57.94
2023-02-09T22:21:07.499Z,58.15
2023-02-09T22:23:35.209Z,58.10
2023-02-09T22:26:04.595Z,58.26
2023-02-09T22:28:35.164Z,58.46
2023-02-09T22:31:12.771Z,58.60
2023-02-09T22:33:40.516Z,58.65
2023-02-09T22:36:13.386Z,58.81
2023-02-09T22:38:41.084Z,58.81
2023-02-09T22:41:23.558Z,58.84
2023-02-09T22:43:59.822Z,58.64
2023-02-09T22:46:29.747Z,58.95
2023-02-09T22:48:59.667Z,59.67
2023-02-09T22:51:29.711Z,59.31
2023-02-09T22:53:58.853Z,58.85
2023-02-09T22:56:28.009Z,59.07
2023-02-09T22:58:59.986Z,59.41
2023-02-09T23:01:29.264Z,59.32
2023-02-09T23:03:57.771Z,59.31
2023-02-09T23:06:27.817Z,58.90
2023-02-09T23:08:58.605Z,59.11
2023-02-09T23:11:27.110Z,59.12
2023-02-09T23:14:08.499Z,59.09
2023-02-09T23:16:38.012Z,59.11
2023-02-09T23:19:07.968Z,60.26
2023-02-09T23:21:38.254Z,60.83
2023-02-09T23:24:06.637Z,61.25
2023-02-09T23:26:34.485Z,60.81
2023-02-09T23:29:04.908Z,60.44
2023-02-09T23:31:32.860Z,59.84
2023-02-09T23:34:00.392Z,59.69
2023-02-09T23:36:30.665Z,59.65
2023-02-09T23:39:00.898Z,59.80
2023-02-09T23:41:28.463Z,59.93
2023-02-09T23:43:56.795Z,59.24
2023-02-09T23:46:28.410Z,59.22
2023-02-09T23:48:57.183Z,59.04
2023-02-09T23:51:28.499Z,59.89
2023-02-09T23:53:57.633Z,59.84
2023-02-09T23:56:25.918Z,60.31
2023-02-09T23:58:54.162Z,60.35
